sensor_id;sensor_type;location;lat;lon;timestamp;P1;durP1;ratioP1;P2;durP2;ratioP2
24961;SDS011;12992;50.884;13.668;2024-03-23T00:55:04;4.00;;;2.25;;
24961;SDS011;12992;50.884;13.668;2024-03-23T00:57:29;5.53;;;3.08;;
24961;SDS011;12992;50.884;13.668;2024-03-23T00:59:54;5.65;;;3.15;;
24961;SDS011;12992;50.884;13.668;2024-03-23T01:02:20;4.93;;;2.42;;
24961;SDS011;12992;50.884;13.668;2024-03-23T01:04:45;5.13;;;2.53;;
24961;SDS011;12992;50.884;13.668;2024-03-23T01:07:11;4.65;;;2.83;;
24961;SDS011;12992;50.884;13.668;2024-03-23T01:09:36;4.80;;;2.65;;
24961;SDS011;12992;50.884;13.668;2024-03-23T01:12:03;6.30;;;2.50;;
24961;SDS011;12992;50.884;13.668;2024-03-23T01:14:29;5.15;;;2.40;;
24961;SDS011;12992;50.884;13.668;2024-03-23T01:16:54;4.35;;;2.05;;
24961;SDS011;12992;50.884;13.668;2024-03-23T01:19:20;5.13;;;2.05;;
24961;SDS011;12992;50.884;13.668;2024-03-23T01:21:45;3.85;;;2.28;;
24961;SDS011;12992;50.884;13.668;2024-03-23T01:24:10;2.90;;;1.88;;
24961;SDS011;12992;50.884;13.668;2024-03-23T01:26:36;3.00;;;1.73;;
24961;SDS011;12992;50.884;13.668;2024-03-23T01:29:02;5.70;;;2.75;;
24961;SDS011;12992;50.884;13.668;2024-03-23T01:31:27;3.95;;;1.95;;
24961;SDS011;12992;50.884;13.668;2024-03-23T01:33:52;2.53;;;1.80;;
24961;SDS011;12992;50.884;13.668;2024-03-23T01:36:18;2.08;;;1.48;;
24961;SDS011;12992;50.884;13.668;2024-03-23T01:38:43;3.95;;;2.30;;
24961;SDS011;12992;50.884;13.668;2024-03-23T01:41:08;7.53;;;2.10;;
24961;SDS011;12992;50.884;13.668;2024-03-23T01:43:34;4.82;;;2.47;;
24961;SDS011;12992;50.884;13.668;2024-03-23T01:45:59;2.97;;;1.90;;
24961;SDS011;12992;50.884;13.668;2024-03-23T01:48:24;4.00;;;2.20;;
24961;SDS011;12992;50.884;13.668;2024-03-23T01:50:50;12.45;;;2.67;;
24961;SDS011;12992;50.884;13.668;2024-03-23T01:53:15;4.15;;;2.63;;
24961;SDS011;12992;50.884;13.668;2024-03-23T01:55:46;5.88;;;2.67;;
24961;SDS011;12992;50.884;13.668;2024-03-23T01:58:12;2.78;;;1.88;;
24961;SDS011;12992;50.884;13.668;2024-03-23T02:00:37;2.95;;;1.77;;
24961;SDS011;12992;50.884;13.668;2024-03-23T02:03:02;5.45;;;1.85;;
24961;SDS011;12992;50.884;13.668;2024-03-23T02:05:47;2.72;;;1.77;;
24961;SDS011;12992;50.884;13.668;2024-03-23T02:08:12;2.05;;;1.42;;
24961;SDS011;12992;50.884;13.668;2024-03-23T02:10:38;2.45;;;1.65;;
24961;SDS011;12992;50.884;13.668;2024-03-23T02:13:03;3.15;;;1.83;;
24961;SDS011;12992;50.884;13.668;2024-03-23T02:15:28;1.33;;;0.98;;
24961;SDS011;12992;50.884;13.668;2024-03-23T02:17:54;3.55;;;2.05;;
24961;SDS011;12992;50.884;13.668;2024-03-23T02:20:19;2.83;;;2.13;;
24961;SDS011;12992;50.884;13.668;2024-03-23T02:22:44;3.75;;;1.77;;
24961;SDS011;12992;50.884;13.668;2024-03-23T02:25:09;3.75;;;1.77;;
24961;SDS011;12992;50.884;13.668;2024-03-23T02:27:35;4.95;;;2.10;;
24961;SDS011;12992;50.884;13.668;2024-03-23T02:30:01;2.58;;;2.10;;
24961;SDS011;12992;50.884;13.668;2024-03-23T02:32:26;3.92;;;2.15;;
24961;SDS011;12992;50.884;13.668;2024-03-23T02:34:51;2.22;;;1.58;;
24961;SDS011;12992;50.884;13.668;2024-03-23T02:37:17;3.35;;;1.90;;
24961;SDS011;12992;50.884;13.668;2024-03-23T02:39:42;6.03;;;2.60;;
24961;SDS011;12992;50.884;13.668;2024-03-23T02:42:07;3.20;;;1.90;;
24961;SDS011;12992;50.884;13.668;2024-03-23T02:44:33;3.30;;;2.28;;
24961;SDS011;12992;50.884;13.668;2024-03-23T02:46:58;1.77;;;1.40;;
24961;SDS011;12992;50.884;13.668;2024-03-23T02:49:24;2.38;;;1.88;;
24961;SDS011;12992;50.884;13.668;2024-03-23T02:51:50;2.70;;;2.38;;
24961;SDS011;12992;50.884;13.668;2024-03-23T02:54:15;4.03;;;2.38;;
24961;SDS011;12992;50.884;13.668;2024-03-23T02:56:41;6.55;;;2.17;;
24961;SDS011;12992;50.884;13.668;2024-03-23T02:59:06;3.60;;;2.28;;
24961;SDS011;12992;50.884;13.668;2024-03-23T03:01:31;3.00;;;1.95;;
24961;SDS011;12992;50.884;13.668;2024-03-23T03:03:57;4.63;;;1.75;;
24961;SDS011;12992;50.884;13.668;2024-03-23T03:06:23;3.08;;;1.90;;
24961;SDS011;12992;50.884;13.668;2024-03-23T03:08:49;4.90;;;1.88;;
24961;SDS011;12992;50.884;13.668;2024-03-23T03:11:14;3.20;;;2.05;;
24961;SDS011;12992;50.884;13.668;2024-03-23T03:13:39;4.95;;;2.90;;
24961;SDS011;12992;50.884;13.668;2024-03-23T03:16:08;1.98;;;1.70;;
24961;SDS011;12992;50.884;13.668;2024-03-23T03:18:34;3.85;;;1.60;;
24961;SDS011;12992;50.884;13.668;2024-03-23T03:21:00;2.67;;;1.83;;
24961;SDS011;12992;50.884;13.668;2024-03-23T03:23:25;4.15;;;2.10;;
24961;SDS011;12992;50.884;13.668;2024-03-23T03:25:50;3.78;;;2.47;;
24961;SDS011;12992;50.884;13.668;2024-03-23T03:28:16;5.22;;;2.45;;
24961;SDS011;12992;50.884;13.668;2024-03-23T03:30:41;2.53;;;1.73;;
24961;SDS011;12992;50.884;13.668;2024-03-23T03:33:06;3.38;;;1.98;;
24961;SDS011;12992;50.884;13.668;2024-03-23T03:35:31;2.40;;;2.00;;
24961;SDS011;12992;50.884;13.668;2024-03-23T03:37:57;6.88;;;2.28;;
24961;SDS011;12992;50.884;13.668;2024-03-23T03:40:22;3.97;;;2.33;;
24961;SDS011;12992;50.884;13.668;2024-03-23T03:42:48;6.75;;;2.22;;
24961;SDS011;12992;50.884;13.668;2024-03-23T03:45:14;4.47;;;2.05;;
24961;SDS011;12992;50.884;13.668;2024-03-23T03:47:39;3.13;;;1.90;;
24961;SDS011;12992;50.884;13.668;2024-03-23T03:50:04;5.10;;;2.47;;
24961;SDS011;12992;50.884;13.668;2024-03-23T03:52:30;6.78;;;2.22;;
24961;SDS011;12992;50.884;13.668;2024-03-23T03:55:01;6.53;;;2.78;;
24961;SDS011;12992;50.884;13.668;2024-03-23T03:57:30;4.07;;;2.13;;
24961;SDS011;12992;50.884;13.668;2024-03-23T03:59:55;4.80;;;2.95;;
24961;SDS011;12992;50.884;13.668;2024-03-23T04:02:21;4.57;;;2.65;;
24961;SDS011;12992;50.884;13.668;2024-03-23T04:04:46;5.63;;;2.50;;
24961;SDS011;12992;50.884;13.668;2024-03-23T04:07:12;3.83;;;2.20;;
24961;SDS011;12992;50.884;13.668;2024-03-23T04:09:37;5.00;;;2.40;;
24961;SDS011;12992;50.884;13.668;2024-03-23T04:12:03;4.78;;;2.85;;
24961;SDS011;12992;50.884;13.668;2024-03-23T04:14:28;4.00;;;2.72;;
24961;SDS011;12992;50.884;13.668;2024-03-23T04:16:53;7.85;;;2.88;;
24961;SDS011;12992;50.884;13.668;2024-03-23T04:19:19;5.88;;;3.47;;
24961;SDS011;12992;50.884;13.668;2024-03-23T04:21:44;7.95;;;3.13;;
24961;SDS011;12992;50.884;13.668;2024-03-23T04:24:10;3.38;;;2.30;;
24961;SDS011;12992;50.884;13.668;2024-03-23T04:26:41;6.63;;;2.67;;
24961;SDS011;12992;50.884;13.668;2024-03-23T04:29:07;7.25;;;3.72;;
24961;SDS011;12992;50.884;13.668;2024-03-23T04:31:32;8.93;;;4.05;;
24961;SDS011;12992;50.884;13.668;2024-03-23T04:33:59;9.38;;;4.47;;
24961;SDS011;12992;50.884;13.668;2024-03-23T04:36:28;8.68;;;3.80;;
24961;SDS011;12992;50.884;13.668;2024-03-23T04:38:53;7.68;;;3.88;;
24961;SDS011;12992;50.884;13.668;2024-03-23T04:41:19;10.88;;;4.45;;
24961;SDS011;12992;50.884;13.668;2024-03-23T04:43:44;10.43;;;5.00;;
24961;SDS011;12992;50.884;13.668;2024-03-23T04:46:10;7.18;;;4.05;;
24961;SDS011;12992;50.884;13.668;2024-03-23T04:48:35;5.80;;;3.65;;
24961;SDS011;12992;50.884;13.668;2024-03-23T04:51:01;13.65;;;5.30;;
24961;SDS011;12992;50.884;13.668;2024-03-23T04:53:26;9.25;;;5.50;;
24961;SDS011;12992;50.884;13.668;2024-03-23T04:55:55;11.07;;;5.03;;
24961;SDS011;12992;50.884;13.668;2024-03-23T04:58:22;8.15;;;3.30;;
24961;SDS011;12992;50.884;13.668;2024-03-23T05:00:52;6.55;;;3.83;;
24961;SDS011;12992;50.884;13.668;2024-03-23T05:03:18;10.70;;;4.50;;
24961;SDS011;12992;50.884;13.668;2024-03-23T05:05:46;7.75;;;4.57;;
24961;SDS011;12992;50.884;13.668;2024-03-23T05:08:11;6.13;;;3.53;;
24961;SDS011;12992;50.884;13.668;2024-03-23T05:10:37;3.13;;;1.92;;
24961;SDS011;12992;50.884;13.668;2024-03-23T05:13:03;4.55;;;2.10;;
24961;SDS011;12992;50.884;13.668;2024-03-23T05:15:28;2.08;;;1.83;;
24961;SDS011;12992;50.884;13.668;2024-03-23T05:17:54;5.00;;;2.10;;
24961;SDS011;12992;50.884;13.668;2024-03-23T05:20:20;2.67;;;1.77;;
24961;SDS011;12992;50.884;13.668;2024-03-23T05:22:45;3.53;;;2.33;;
24961;SDS011;12992;50.884;13.668;2024-03-23T05:25:11;3.30;;;2.10;;
24961;SDS011;12992;50.884;13.668;2024-03-23T05:27:37;3.45;;;1.80;;
24961;SDS011;12992;50.884;13.668;2024-03-23T05:30:02;6.75;;;2.78;;
24961;SDS011;12992;50.884;13.668;2024-03-23T05:32:28;5.05;;;2.90;;
24961;SDS011;12992;50.884;13.668;2024-03-23T05:34:54;4.13;;;1.92;;
24961;SDS011;12992;50.884;13.668;2024-03-23T05:37:24;3.47;;;2.72;;
24961;SDS011;12992;50.884;13.668;2024-03-23T05:39:50;4.00;;;2.22;;
24961;SDS011;12992;50.884;13.668;2024-03-23T05:42:16;6.75;;;2.90;;
24961;SDS011;12992;50.884;13.668;2024-03-23T05:44:45;8.05;;;3.50;;
24961;SDS011;12992;50.884;13.668;2024-03-23T05:47:11;6.72;;;3.65;;
24961;SDS011;12992;50.884;13.668;2024-03-23T05:49:41;4.90;;;2.55;;
24961;SDS011;12992;50.884;13.668;2024-03-23T05:52:07;4.38;;;3.05;;
24961;SDS011;12992;50.884;13.668;2024-03-23T05:54:33;4.93;;;2.88;;
24961;SDS011;12992;50.884;13.668;2024-03-23T05:56:59;6.22;;;2.83;;
24961;SDS011;12992;50.884;13.668;2024-03-23T05:59:24;5.53;;;2.53;;
24961;SDS011;12992;50.884;13.668;2024-03-23T06:01:50;3.60;;;2.67;;
24961;SDS011;12992;50.884;13.668;2024-03-23T06:04:15;6.78;;;2.90;;
24961;SDS011;12992;50.884;13.668;2024-03-23T06:06:40;5.20;;;2.63;;
24961;SDS011;12992;50.884;13.668;2024-03-23T06:09:06;12.35;;;5.63;;
24961;SDS011;12992;50.884;13.668;2024-03-23T06:11:31;4.75;;;2.95;;
24961;SDS011;12992;50.884;13.668;2024-03-23T06:13:56;3.65;;;2.15;;
24961;SDS011;12992;50.884;13.668;2024-03-23T06:16:22;3.67;;;2.38;;
24961;SDS011;12992;50.884;13.668;2024-03-23T06:18:52;5.00;;;2.58;;
24961;SDS011;12992;50.884;13.668;2024-03-23T06:21:17;9.70;;;4.88;;
24961;SDS011;12992;50.884;13.668;2024-03-23T06:23:43;9.10;;;3.92;;
24961;SDS011;12992;50.884;13.668;2024-03-23T06:26:13;8.10;;;3.85;;
24961;SDS011;12992;50.884;13.668;2024-03-23T06:28:38;8.35;;;3.47;;
24961;SDS011;12992;50.884;13.668;2024-03-23T06:31:06;5.70;;;2.83;;
24961;SDS011;12992;50.884;13.668;2024-03-23T06:33:34;6.18;;;3.53;;
24961;SDS011;12992;50.884;13.668;2024-03-23T06:35:59;7.22;;;3.65;;
24961;SDS011;12992;50.884;13.668;2024-03-23T06:38:24;8.65;;;3.67;;
24961;SDS011;12992;50.884;13.668;2024-03-23T06:40:50;8.63;;;4.65;;
24961;SDS011;12992;50.884;13.668;2024-03-23T06:43:17;10.07;;;4.07;;
24961;SDS011;12992;50.884;13.668;2024-03-23T06:45:43;4.80;;;2.90;;
24961;SDS011;12992;50.884;13.668;2024-03-23T06:48:08;8.13;;;2.92;;
24961;SDS011;12992;50.884;13.668;2024-03-23T06:50:34;15.77;;;5.82;;
24961;SDS011;12992;50.884;13.668;2024-03-23T06:52:59;9.50;;;4.40;;
24961;SDS011;12992;50.884;13.668;2024-03-23T06:55:26;4.60;;;2.72;;
24961;SDS011;12992;50.884;13.668;2024-03-23T06:57:52;4.65;;;2.05;;
24961;SDS011;12992;50.884;13.668;2024-03-23T07:00:18;4.07;;;2.35;;
24961;SDS011;12992;50.884;13.668;2024-03-23T07:02:43;3.78;;;2.38;;
24961;SDS011;12992;50.884;13.668;2024-03-23T07:05:09;4.70;;;2.30;;
24961;SDS011;12992;50.884;13.668;2024-03-23T07:07:35;5.35;;;2.78;;
24961;SDS011;12992;50.884;13.668;2024-03-23T07:10:01;6.63;;;3.53;;
24961;SDS011;12992;50.884;13.668;2024-03-23T07:12:27;3.38;;;2.58;;
24961;SDS011;12992;50.884;13.668;2024-03-23T07:14:52;5.43;;;2.63;;
24961;SDS011;12992;50.884;13.668;2024-03-23T07:17:17;5.00;;;3.20;;
24961;SDS011;12992;50.884;13.668;2024-03-23T07:19:43;4.93;;;2.60;;
24961;SDS011;12992;50.884;13.668;2024-03-23T07:22:08;5.68;;;2.65;;
24961;SDS011;12992;50.884;13.668;2024-03-23T07:24:34;4.13;;;2.58;;
24961;SDS011;12992;50.884;13.668;2024-03-23T07:26:59;5.82;;;1.95;;
24961;SDS011;12992;50.884;13.668;2024-03-23T07:29:24;4.75;;;2.45;;
24961;SDS011;12992;50.884;13.668;2024-03-23T07:31:50;3.13;;;2.25;;
24961;SDS011;12992;50.884;13.668;2024-03-23T07:34:15;2.80;;;2.03;;
24961;SDS011;12992;50.884;13.668;2024-03-23T07:36:41;2.85;;;1.85;;
24961;SDS011;12992;50.884;13.668;2024-03-23T07:39:06;3.17;;;2.00;;
24961;SDS011;12992;50.884;13.668;2024-03-23T07:41:32;3.38;;;2.17;;
24961;SDS011;12992;50.884;13.668;2024-03-23T07:43:58;2.67;;;1.92;;
24961;SDS011;12992;50.884;13.668;2024-03-23T07:46:23;1.98;;;1.70;;
24961;SDS011;12992;50.884;13.668;2024-03-23T07:48:50;3.70;;;1.65;;
24961;SDS011;12992;50.884;13.668;2024-03-23T07:51:16;2.22;;;1.38;;
24961;SDS011;12992;50.884;13.668;2024-03-23T07:53:43;2.15;;;1.38;;
24961;SDS011;12992;50.884;13.668;2024-03-23T07:56:10;2.10;;;0.93;;
24961;SDS011;12992;50.884;13.668;2024-03-23T07:58:36;1.20;;;0.93;;
24961;SDS011;12992;50.884;13.668;2024-03-23T08:01:05;2.35;;;1.75;;
24961;SDS011;12992;50.884;13.668;2024-03-23T08:03:34;2.22;;;1.15;;
24961;SDS011;12992;50.884;13.668;2024-03-23T08:06:10;2.30;;;1.38;;
24961;SDS011;12992;50.884;13.668;2024-03-23T08:08:39;2.38;;;1.23;;
24961;SDS011;12992;50.884;13.668;2024-03-23T08:11:05;1.73;;;1.23;;
24961;SDS011;12992;50.884;13.668;2024-03-23T08:13:31;1.65;;;1.05;;
24961;SDS011;12992;50.884;13.668;2024-03-23T08:15:57;2.20;;;1.42;;
24961;SDS011;12992;50.884;13.668;2024-03-23T08:18:23;2.15;;;1.42;;
24961;SDS011;12992;50.884;13.668;2024-03-23T08:21:04;1.77;;;1.50;;
24961;SDS011;12992;50.884;13.668;2024-03-23T08:23:31;1.65;;;1.00;;
24961;SDS011;12992;50.884;13.668;2024-03-23T08:26:05;2.20;;;1.33;;
24961;SDS011;12992;50.884;13.668;2024-03-23T08:28:31;1.35;;;1.10;;
24961;SDS011;12992;50.884;13.668;2024-03-23T08:31:00;2.35;;;1.20;;
24961;SDS011;12992;50.884;13.668;2024-03-23T08:33:27;3.08;;;1.08;;
24961;SDS011;12992;50.884;13.668;2024-03-23T08:35:56;0.90;;;0.85;;
24961;SDS011;12992;50.884;13.668;2024-03-23T08:38:26;1.90;;;1.05;;
24961;SDS011;12992;50.884;13.668;2024-03-23T08:43:27;1.40;;;1.08;;
24961;SDS011;12992;50.884;13.668;2024-03-23T08:45:53;1.85;;;1.08;;
24961;SDS011;12992;50.884;13.668;2024-03-23T08:48:19;1.40;;;0.93;;
24961;SDS011;12992;50.884;13.668;2024-03-23T08:50:46;1.00;;;0.90;;
24961;SDS011;12992;50.884;13.668;2024-03-23T08:53:11;3.10;;;0.98;;
24961;SDS011;12992;50.884;13.668;2024-03-23T08:55:37;1.05;;;0.95;;
24961;SDS011;12992;50.884;13.668;2024-03-23T08:58:02;1.40;;;1.10;;
24961;SDS011;12992;50.884;13.668;2024-03-23T09:00:29;2.25;;;1.17;;
24961;SDS011;12992;50.884;13.668;2024-03-23T09:02:54;2.10;;;1.60;;
24961;SDS011;12992;50.884;13.668;2024-03-23T09:05:20;2.15;;;1.27;;
24961;SDS011;12992;50.884;13.668;2024-03-23T09:07:45;1.55;;;1.30;;
24961;SDS011;12992;50.884;13.668;2024-03-23T09:10:11;3.45;;;1.42;;
24961;SDS011;12992;50.884;13.668;2024-03-23T09:12:36;2.17;;;1.40;;
24961;SDS011;12992;50.884;13.668;2024-03-23T09:15:01;2.42;;;1.23;;
24961;SDS011;12992;50.884;13.668;2024-03-23T09:17:27;3.70;;;1.95;;
24961;SDS011;12992;50.884;13.668;2024-03-23T09:19:52;3.50;;;1.75;;
24961;SDS011;12992;50.884;13.668;2024-03-23T09:22:17;5.05;;;2.17;;
24961;SDS011;12992;50.884;13.668;2024-03-23T09:24:42;3.38;;;1.75;;
24961;SDS011;12992;50.884;13.668;2024-03-23T09:27:08;3.75;;;1.98;;
24961;SDS011;12992;50.884;13.668;2024-03-23T09:29:33;3.63;;;1.77;;
24961;SDS011;12992;50.884;13.668;2024-03-23T09:31:58;1.67;;;1.40;;
24961;SDS011;12992;50.884;13.668;2024-03-23T09:34:24;2.95;;;2.05;;
24961;SDS011;12992;50.884;13.668;2024-03-23T09:36:52;3.45;;;2.15;;
24961;SDS011;12992;50.884;13.668;2024-03-23T09:39:17;2.92;;;2.15;;
24961;SDS011;12992;50.884;13.668;2024-03-23T09:41:43;5.78;;;3.20;;
24961;SDS011;12992;50.884;13.668;2024-03-23T09:44:08;5.20;;;2.20;;
24961;SDS011;12992;50.884;13.668;2024-03-23T09:46:34;4.43;;;2.30;;
24961;SDS011;12992;50.884;13.668;2024-03-23T09:49:01;3.20;;;2.03;;
24961;SDS011;12992;50.884;13.668;2024-03-23T09:51:29;2.92;;;2.10;;
24961;SDS011;12992;50.884;13.668;2024-03-23T09:53:55;2.70;;;1.90;;
24961;SDS011;12992;50.884;13.668;2024-03-23T09:56:22;4.50;;;2.33;;
24961;SDS011;12992;50.884;13.668;2024-03-23T09:58:48;3.50;;;2.15;;
24961;SDS011;12992;50.884;13.668;2024-03-23T10:01:13;4.15;;;1.95;;
24961;SDS011;12992;50.884;13.668;2024-03-23T10:03:43;1.83;;;1.45;;
24961;SDS011;12992;50.884;13.668;2024-03-23T10:06:11;1.70;;;1.27;;
24961;SDS011;12992;50.884;13.668;2024-03-23T10:08:36;2.88;;;1.75;;
24961;SDS011;12992;50.884;13.668;2024-03-23T10:11:12;3.40;;;1.27;;
24961;SDS011;12992;50.884;13.668;2024-03-23T10:13:41;1.45;;;1.30;;
24961;SDS011;12992;50.884;13.668;2024-03-23T10:16:08;0.20;;;0.20;;
24961;SDS011;12992;50.884;13.668;2024-03-23T10:18:37;0.43;;;0.40;;
24961;SDS011;12992;50.884;13.668;2024-03-23T10:23:40;0.20;;;0.20;;
24961;SDS011;12992;50.884;13.668;2024-03-23T10:26:13;0.20;;;0.20;;
24961;SDS011;12992;50.884;13.668;2024-03-23T10:28:51;0.10;;;0.10;;
24961;SDS011;12992;50.884;13.668;2024-03-23T10:31:17;0.20;;;0.17;;
24961;SDS011;12992;50.884;13.668;2024-03-23T10:33:44;0.10;;;0.10;;
24961;SDS011;12992;50.884;13.668;2024-03-23T10:36:11;0.10;;;0.10;;
24961;SDS011;12992;50.884;13.668;2024-03-23T10:38:37;0.20;;;0.20;;
24961;SDS011;12992;50.884;13.668;2024-03-23T10:41:05;0.00;;;0.00;;
24961;SDS011;12992;50.884;13.668;2024-03-23T10:43:31;0.13;;;0.13;;
24961;SDS011;12992;50.884;13.668;2024-03-23T10:45:58;0.10;;;0.10;;
24961;SDS011;12992;50.884;13.668;2024-03-23T10:48:23;0.10;;;0.10;;
24961;SDS011;12992;50.884;13.668;2024-03-23T10:50:48;0.10;;;0.10;;
24961;SDS011;12992;50.884;13.668;2024-03-23T10:53:14;0.10;;;0.10;;
24961;SDS011;12992;50.884;13.668;2024-03-23T10:55:40;0.22;;;0.22;;
24961;SDS011;12992;50.884;13.668;2024-03-23T10:58:06;0.10;;;0.10;;
24961;SDS011;12992;50.884;13.668;2024-03-23T11:00:32;0.10;;;0.10;;
24961;SDS011;12992;50.884;13.668;2024-03-23T11:02:57;0.10;;;0.10;;
24961;SDS011;12992;50.884;13.668;2024-03-23T11:07:49;0.28;;;0.25;;
24961;SDS011;12992;50.884;13.668;2024-03-23T11:10:28;0.10;;;0.10;;
24961;SDS011;12992;50.884;13.668;2024-03-23T11:12:56;0.10;;;0.10;;
24961;SDS011;12992;50.884;13.668;2024-03-23T11:15:21;0.10;;;0.10;;
24961;SDS011;12992;50.884;13.668;2024-03-23T11:18:01;0.20;;;0.20;;
24961;SDS011;12992;50.884;13.668;2024-03-23T11:20:33;0.10;;;0.10;;
24961;SDS011;12992;50.884;13.668;2024-03-23T11:22:59;0.10;;;0.10;;
24961;SDS011;12992;50.884;13.668;2024-03-23T11:25:25;0.20;;;0.20;;
24961;SDS011;12992;50.884;13.668;2024-03-23T11:27:52;0.10;;;0.10;;
24961;SDS011;12992;50.884;13.668;2024-03-23T11:30:20;0.10;;;0.10;;
24961;SDS011;12992;50.884;13.668;2024-03-23T11:32:50;0.10;;;0.10;;
24961;SDS011;12992;50.884;13.668;2024-03-23T11:35:26;0.05;;;0.05;;
24961;SDS011;12992;50.884;13.668;2024-03-23T11:40:34;0.28;;;0.20;;
24961;SDS011;12992;50.884;13.668;2024-03-23T11:43:03;0.08;;;0.08;;
24961;SDS011;12992;50.884;13.668;2024-03-23T11:45:33;0.20;;;0.20;;
24961;SDS011;12992;50.884;13.668;2024-03-23T11:48:05;0.10;;;0.10;;
24961;SDS011;12992;50.884;13.668;2024-03-23T11:50:36;0.43;;;0.32;;
24961;SDS011;12992;50.884;13.668;2024-03-23T11:53:06;0.75;;;0.40;;
24961;SDS011;12992;50.884;13.668;2024-03-23T11:55:55;1.27;;;0.65;;
24961;SDS011;12992;50.884;13.668;2024-03-23T11:58:22;0.35;;;0.35;;
24961;SDS011;12992;50.884;13.668;2024-03-23T12:00:49;0.88;;;0.50;;
24961;SDS011;12992;50.884;13.668;2024-03-23T12:03:17;0.20;;;0.20;;
24961;SDS011;12992;50.884;13.668;2024-03-23T12:05:47;0.30;;;0.30;;
24961;SDS011;12992;50.884;13.668;2024-03-23T12:08:14;0.40;;;0.40;;
24961;SDS011;12992;50.884;13.668;2024-03-23T12:10:51;0.30;;;0.30;;
24961;SDS011;12992;50.884;13.668;2024-03-23T12:13:18;1.83;;;0.60;;
24961;SDS011;12992;50.884;13.668;2024-03-23T12:15:45;0.35;;;0.35;;
24961;SDS011;12992;50.884;13.668;2024-03-23T12:18:11;0.43;;;0.40;;
24961;SDS011;12992;50.884;13.668;2024-03-23T12:20:37;0.40;;;0.40;;
24961;SDS011;12992;50.884;13.668;2024-03-23T12:23:10;0.43;;;0.40;;
24961;SDS011;12992;50.884;13.668;2024-03-23T12:25:39;0.17;;;0.17;;
24961;SDS011;12992;50.884;13.668;2024-03-23T12:28:05;0.40;;;0.40;;
24961;SDS011;12992;50.884;13.668;2024-03-23T12:30:40;0.30;;;0.30;;
24961;SDS011;12992;50.884;13.668;2024-03-23T12:33:05;0.28;;;0.28;;
24961;SDS011;12992;50.884;13.668;2024-03-23T12:35:31;0.30;;;0.30;;
24961;SDS011;12992;50.884;13.668;2024-03-23T12:37:56;0.40;;;0.40;;
24961;SDS011;12992;50.884;13.668;2024-03-23T12:40:22;0.38;;;0.30;;
24961;SDS011;12992;50.884;13.668;2024-03-23T12:42:47;0.28;;;0.28;;
24961;SDS011;12992;50.884;13.668;2024-03-23T12:45:13;0.28;;;0.20;;
24961;SDS011;12992;50.884;13.668;2024-03-23T12:47:38;0.50;;;0.50;;
24961;SDS011;12992;50.884;13.668;2024-03-23T12:50:03;0.30;;;0.30;;
24961;SDS011;12992;50.884;13.668;2024-03-23T12:52:30;0.32;;;0.32;;
24961;SDS011;12992;50.884;13.668;2024-03-23T12:54:56;0.22;;;0.22;;
24961;SDS011;12992;50.884;13.668;2024-03-23T12:57:25;0.20;;;0.20;;
24961;SDS011;12992;50.884;13.668;2024-03-23T12:59:51;0.47;;;0.40;;
24961;SDS011;12992;50.884;13.668;2024-03-23T13:02:20;0.30;;;0.30;;
24961;SDS011;12992;50.884;13.668;2024-03-23T13:04:49;1.02;;;0.38;;
24961;SDS011;12992;50.884;13.668;2024-03-23T13:07:16;0.20;;;0.20;;
24961;SDS011;12992;50.884;13.668;2024-03-23T13:09:42;1.92;;;1.10;;
24961;SDS011;12992;50.884;13.668;2024-03-23T13:12:07;0.50;;;0.40;;
24961;SDS011;12992;50.884;13.668;2024-03-23T13:14:33;0.40;;;0.40;;
24961;SDS011;12992;50.884;13.668;2024-03-23T13:16:58;0.52;;;0.52;;
24961;SDS011;12992;50.884;13.668;2024-03-23T13:19:24;0.50;;;0.40;;
24961;SDS011;12992;50.884;13.668;2024-03-23T13:21:52;0.45;;;0.45;;
24961;SDS011;12992;50.884;13.668;2024-03-23T13:24:21;0.30;;;0.30;;
24961;SDS011;12992;50.884;13.668;2024-03-23T13:26:47;0.45;;;0.25;;
24961;SDS011;12992;50.884;13.668;2024-03-23T13:29:13;0.40;;;0.40;;
24961;SDS011;12992;50.884;13.668;2024-03-23T13:31:38;1.10;;;0.45;;
24961;SDS011;12992;50.884;13.668;2024-03-23T13:34:03;0.60;;;0.35;;
24961;SDS011;12992;50.884;13.668;2024-03-23T13:36:29;0.10;;;0.10;;
24961;SDS011;12992;50.884;13.668;2024-03-23T13:38:54;0.30;;;0.30;;
24961;SDS011;12992;50.884;13.668;2024-03-23T13:41:19;0.90;;;0.60;;
24961;SDS011;12992;50.884;13.668;2024-03-23T13:43:45;1.05;;;0.40;;
24961;SDS011;12992;50.884;13.668;2024-03-23T13:46:10;0.22;;;0.22;;
24961;SDS011;12992;50.884;13.668;2024-03-23T13:48:35;0.50;;;0.43;;
24961;SDS011;12992;50.884;13.668;2024-03-23T13:51:01;0.38;;;0.38;;
24961;SDS011;12992;50.884;13.668;2024-03-23T13:53:28;1.45;;;0.47;;
24961;SDS011;12992;50.884;13.668;2024-03-23T13:55:54;0.68;;;0.40;;
24961;SDS011;12992;50.884;13.668;2024-03-23T13:58:20;0.80;;;0.60;;
24961;SDS011;12992;50.884;13.668;2024-03-23T14:00:45;0.55;;;0.55;;
24961;SDS011;12992;50.884;13.668;2024-03-23T14:03:11;0.40;;;0.40;;
24961;SDS011;12992;50.884;13.668;2024-03-23T14:05:37;0.30;;;0.22;;
24961;SDS011;12992;50.884;13.668;2024-03-23T14:08:07;1.02;;;0.30;;
24961;SDS011;12992;50.884;13.668;2024-03-23T14:10:32;0.30;;;0.30;;
24961;SDS011;12992;50.884;13.668;2024-03-23T14:12:58;0.32;;;0.30;;
24961;SDS011;12992;50.884;13.668;2024-03-23T14:15:25;2.38;;;0.40;;
24961;SDS011;12992;50.884;13.668;2024-03-23T14:17:51;0.40;;;0.40;;
24961;SDS011;12992;50.884;13.668;2024-03-23T14:20:16;1.25;;;0.50;;
24961;SDS011;12992;50.884;13.668;2024-03-23T14:22:42;0.32;;;0.32;;
24961;SDS011;12992;50.884;13.668;2024-03-23T14:25:08;0.55;;;0.45;;
24961;SDS011;12992;50.884;13.668;2024-03-23T14:27:34;0.82;;;0.82;;
24961;SDS011;12992;50.884;13.668;2024-03-23T14:30:02;0.52;;;0.38;;
24961;SDS011;12992;50.884;13.668;2024-03-23T14:32:31;0.63;;;0.60;;
24961;SDS011;12992;50.884;13.668;2024-03-23T14:35:08;0.85;;;0.63;;
24961;SDS011;12992;50.884;13.668;2024-03-23T14:37:36;0.35;;;0.35;;
24961;SDS011;12992;50.884;13.668;2024-03-23T14:40:02;1.50;;;0.82;;
24961;SDS011;12992;50.884;13.668;2024-03-23T14:42:28;0.57;;;0.50;;
24961;SDS011;12992;50.884;13.668;2024-03-23T14:44:53;1.52;;;0.95;;
24961;SDS011;12992;50.884;13.668;2024-03-23T14:47:19;0.80;;;0.80;;
24961;SDS011;12992;50.884;13.668;2024-03-23T14:49:45;0.60;;;0.55;;
24961;SDS011;12992;50.884;13.668;2024-03-23T14:52:12;1.55;;;0.80;;
24961;SDS011;12992;50.884;13.668;2024-03-23T14:54:41;2.15;;;0.73;;
24961;SDS011;12992;50.884;13.668;2024-03-23T14:57:07;0.95;;;0.70;;
24961;SDS011;12992;50.884;13.668;2024-03-23T14:59:34;0.30;;;0.30;;
24961;SDS011;12992;50.884;13.668;2024-03-23T15:01:59;1.55;;;1.02;;
24961;SDS011;12992;50.884;13.668;2024-03-23T15:04:25;1.10;;;0.75;;
24961;SDS011;12992;50.884;13.668;2024-03-23T15:06:50;2.58;;;1.00;;
24961;SDS011;12992;50.884;13.668;2024-03-23T15:09:15;0.73;;;0.73;;
24961;SDS011;12992;50.884;13.668;2024-03-23T15:11:41;2.10;;;0.90;;
24961;SDS011;12992;50.884;13.668;2024-03-23T15:14:06;0.50;;;0.50;;
24961;SDS011;12992;50.884;13.668;2024-03-23T15:16:32;0.75;;;0.30;;
24961;SDS011;12992;50.884;13.668;2024-03-23T15:18:58;1.02;;;0.73;;
24961;SDS011;12992;50.884;13.668;2024-03-23T15:21:23;2.28;;;0.98;;
24961;SDS011;12992;50.884;13.668;2024-03-23T15:23:48;1.58;;;0.82;;
24961;SDS011;12992;50.884;13.668;2024-03-23T15:26:14;0.50;;;0.50;;
24961;SDS011;12992;50.884;13.668;2024-03-23T15:28:40;2.50;;;0.57;;
24961;SDS011;12992;50.884;13.668;2024-03-23T15:31:08;1.88;;;0.73;;
24961;SDS011;12992;50.884;13.668;2024-03-23T15:33:36;0.57;;;0.57;;